sensor_id;sensor_type;location;lat;lon;timestamp;P1;durP1;ratioP1;P2;durP2;ratioP2
24301;SDS011;12421;49.732;20.078;2022-07-15T00:05:45;2.87;;;1.50;;
24301;SDS011;12421;49.732;20.078;2022-07-15T00:15:48;3.60;;;1.50;;
24301;SDS011;12421;49.732;20.078;2022-07-15T00:25:50;2.45;;;1.32;;
24301;SDS011;12421;49.732;20.078;2022-07-15T00:35:52;2.87;;;1.32;;
24301;SDS011;12421;49.732;20.078;2022-07-15T00:45:54;2.58;;;1.60;;
24301;SDS011;12421;49.732;20.078;2022-07-15T00:55:57;4.53;;;1.42;;
24301;SDS011;12421;49.732;20.078;2022-07-15T01:06:03;2.03;;;1.20;;
24301;SDS011;12421;49.732;20.078;2022-07-15T01:16:06;3.92;;;1.45;;
24301;SDS011;12421;49.732;20.078;2022-07-15T01:26:10;2.05;;;1.37;;
24301;SDS011;12421;49.732;20.078;2022-07-15T01:36:15;2.50;;;1.50;;
24301;SDS011;12421;49.732;20.078;2022-07-15T01:46:19;2.92;;;1.50;;
24301;SDS011;12421;49.732;20.078;2022-07-15T01:56:22;4.78;;;1.50;;
24301;SDS011;12421;49.732;20.078;2022-07-15T02:06:25;2.27;;;1.10;;
24301;SDS011;12421;49.732;20.078;2022-07-15T02:16:28;2.17;;;1.15;;
24301;SDS011;12421;49.732;20.078;2022-07-15T02:26:33;2.62;;;1.32;;
24301;SDS011;12421;49.732;20.078;2022-07-15T02:36:36;3.65;;;1.40;;
24301;SDS011;12421;49.732;20.078;2022-07-15T02:46:38;3.75;;;1.20;;
24301;SDS011;12421;49.732;20.078;2022-07-15T02:56:40;4.97;;;1.60;;
24301;SDS011;12421;49.732;20.078;2022-07-15T03:06:42;2.90;;;1.20;;
24301;SDS011;12421;49.732;20.078;2022-07-15T03:16:46;3.35;;;1.12;;
24301;SDS011;12421;49.732;20.078;2022-07-15T03:26:49;5.37;;;1.20;;
24301;SDS011;12421;49.732;20.078;2022-07-15T03:36:51;3.95;;;1.70;;
24301;SDS011;12421;49.732;20.078;2022-07-15T03:46:55;6.83;;;1.80;;
24301;SDS011;12421;49.732;20.078;2022-07-15T03:56:59;4.95;;;1.65;;
24301;SDS011;12421;49.732;20.078;2022-07-15T04:07:01;3.55;;;1.40;;
24301;SDS011;12421;49.732;20.078;2022-07-15T04:37:42;3.92;;;2.30;;
24301;SDS011;12421;49.732;20.078;2022-07-15T04:47:49;4.80;;;2.55;;
24301;SDS011;12421;49.732;20.078;2022-07-15T04:57:53;4.75;;;3.40;;
24301;SDS011;12421;49.732;20.078;2022-07-15T05:07:56;6.15;;;3.85;;
24301;SDS011;12421;49.732;20.078;2022-07-15T05:29:01;10.13;;;5.12;;
24301;SDS011;12421;49.732;20.078;2022-07-15T05:39:03;8.93;;;5.80;;
24301;SDS011;12421;49.732;20.078;2022-07-15T05:49:05;14.93;;;7.22;;
24301;SDS011;12421;49.732;20.078;2022-07-15T05:59:08;14.05;;;6.78;;
24301;SDS011;12421;49.732;20.078;2022-07-15T06:09:10;8.70;;;6.95;;
24301;SDS011;12421;49.732;20.078;2022-07-15T06:19:13;9.83;;;7.30;;
24301;SDS011;12421;49.732;20.078;2022-07-15T06:29:15;10.80;;;7.37;;
24301;SDS011;12421;49.732;20.078;2022-07-15T06:39:17;10.17;;;7.53;;
24301;SDS011;12421;49.732;20.078;2022-07-15T06:49:21;8.15;;;5.45;;
24301;SDS011;12421;49.732;20.078;2022-07-15T06:59:25;7.75;;;5.37;;
24301;SDS011;12421;49.732;20.078;2022-07-15T07:09:28;9.33;;;5.00;;
24301;SDS011;12421;49.732;20.078;2022-07-15T07:19:32;8.13;;;4.40;;
24301;SDS011;12421;49.732;20.078;2022-07-15T07:52:06;4.33;;;2.17;;
24301;SDS011;12421;49.732;20.078;2022-07-15T08:13:42;9.08;;;1.80;;
24301;SDS011;12421;49.732;20.078;2022-07-15T08:23:44;6.15;;;2.95;;
24301;SDS011;12421;49.732;20.078;2022-07-15T08:33:47;6.40;;;2.30;;
24301;SDS011;12421;49.732;20.078;2022-07-15T08:43:52;5.60;;;1.45;;
24301;SDS011;12421;49.732;20.078;2022-07-15T09:04:11;6.47;;;1.90;;
24301;SDS011;12421;49.732;20.078;2022-07-15T09:14:15;4.95;;;1.85;;
24301;SDS011;12421;49.732;20.078;2022-07-15T09:24:26;3.75;;;1.55;;
24301;SDS011;12421;49.732;20.078;2022-07-15T09:34:28;5.67;;;1.67;;
24301;SDS011;12421;49.732;20.078;2022-07-15T09:44:30;4.42;;;1.57;;
24301;SDS011;12421;49.732;20.078;2022-07-15T10:04:40;4.87;;;1.60;;
24301;SDS011;12421;49.732;20.078;2022-07-15T10:25:17;4.72;;;1.40;;
24301;SDS011;12421;49.732;20.078;2022-07-15T10:35:50;4.83;;;1.35;;
24301;SDS011;12421;49.732;20.078;2022-07-15T10:46:02;3.92;;;1.20;;
24301;SDS011;12421;49.732;20.078;2022-07-15T11:17:09;7.70;;;1.42;;
24301;SDS011;12421;49.732;20.078;2022-07-15T11:27:14;4.90;;;1.20;;
24301;SDS011;12421;49.732;20.078;2022-07-15T11:37:18;3.05;;;0.93;;
24301;SDS011;12421;49.732;20.078;2022-07-15T11:47:35;2.92;;;0.78;;
24301;SDS011;12421;49.732;20.078;2022-07-15T11:57:45;6.55;;;1.30;;
24301;SDS011;12421;49.732;20.078;2022-07-15T12:07:49;2.85;;;0.80;;
24301;SDS011;12421;49.732;20.078;2022-07-15T12:17:52;2.10;;;0.90;;
24301;SDS011;12421;49.732;20.078;2022-07-15T12:27:55;5.80;;;1.22;;
24301;SDS011;12421;49.732;20.078;2022-07-15T12:37:57;3.58;;;1.20;;
24301;SDS011;12421;49.732;20.078;2022-07-15T12:59:28;1.90;;;0.70;;
24301;SDS011;12421;49.732;20.078;2022-07-15T13:09:30;3.42;;;1.30;;
24301;SDS011;12421;49.732;20.078;2022-07-15T13:19:37;7.00;;;0.97;;
24301;SDS011;12421;49.732;20.078;2022-07-15T13:50:33;2.08;;;0.60;;
24301;SDS011;12421;49.732;20.078;2022-07-15T14:00:56;1.85;;;0.60;;
24301;SDS011;12421;49.732;20.078;2022-07-15T14:21:14;2.10;;;0.85;;
24301;SDS011;12421;49.732;20.078;2022-07-15T14:31:19;1.85;;;0.53;;
24301;SDS011;12421;49.732;20.078;2022-07-15T14:41:21;1.95;;;0.90;;
24301;SDS011;12421;49.732;20.078;2022-07-15T14:51:23;2.75;;;0.80;;
24301;SDS011;12421;49.732;20.078;2022-07-15T15:01:25;2.77;;;0.72;;
24301;SDS011;12421;49.732;20.078;2022-07-15T15:11:27;2.77;;;0.95;;
24301;SDS011;12421;49.732;20.078;2022-07-15T15:21:31;3.85;;;0.80;;
24301;SDS011;12421;49.732;20.078;2022-07-15T15:31:34;3.33;;;0.80;;
24301;SDS011;12421;49.732;20.078;2022-07-15T15:41:42;3.52;;;1.10;;
24301;SDS011;12421;49.732;20.078;2022-07-15T15:51:45;5.65;;;1.00;;
24301;SDS011;12421;49.732;20.078;2022-07-15T16:01:48;2.55;;;0.90;;
24301;SDS011;12421;49.732;20.078;2022-07-15T16:11:51;3.10;;;0.80;;
24301;SDS011;12421;49.732;20.078;2022-07-15T16:21:53;5.45;;;1.02;;
24301;SDS011;12421;49.732;20.078;2022-07-15T16:32:14;3.30;;;1.22;;
24301;SDS011;12421;49.732;20.078;2022-07-15T16:42:16;4.12;;;1.20;;
24301;SDS011;12421;49.732;20.078;2022-07-15T17:02:49;2.50;;;0.90;;
24301;SDS011;12421;49.732;20.078;2022-07-15T17:12:52;3.00;;;0.93;;
24301;SDS011;12421;49.732;20.078;2022-07-15T17:34:38;3.58;;;2.05;;
24301;SDS011;12421;49.732;20.078;2022-07-15T17:44:42;5.60;;;2.85;;
24301;SDS011;12421;49.732;20.078;2022-07-15T17:54:46;11.45;;;4.47;;
24301;SDS011;12421;49.732;20.078;2022-07-15T18:04:48;10.40;;;6.12;;
24301;SDS011;12421;49.732;20.078;2022-07-15T18:14:53;10.23;;;4.33;;
24301;SDS011;12421;49.732;20.078;2022-07-15T18:25:14;8.50;;;3.90;;
24301;SDS011;12421;49.732;20.078;2022-07-15T18:35:17;9.10;;;3.35;;
24301;SDS011;12421;49.732;20.078;2022-07-15T18:45:26;8.17;;;4.60;;
24301;SDS011;12421;49.732;20.078;2022-07-15T18:55:32;6.55;;;3.92;;
24301;SDS011;12421;49.732;20.078;2022-07-15T19:05:34;7.90;;;3.55;;
24301;SDS011;12421;49.732;20.078;2022-07-15T19:15:37;7.70;;;3.85;;
24301;SDS011;12421;49.732;20.078;2022-07-15T19:46:10;14.67;;;7.63;;
24301;SDS011;12421;49.732;20.078;2022-07-15T20:07:08;29.32;;;9.50;;
24301;SDS011;12421;49.732;20.078;2022-07-15T20:17:10;13.10;;;6.78;;
24301;SDS011;12421;49.732;20.078;2022-07-15T20:27:14;22.48;;;8.93;;
24301;SDS011;12421;49.732;20.078;2022-07-15T20:37:16;22.30;;;10.68;;
24301;SDS011;12421;49.732;20.078;2022-07-15T20:47:19;19.30;;;7.17;;
24301;SDS011;12421;49.732;20.078;2022-07-15T20:57:22;12.93;;;6.60;;
24301;SDS011;12421;49.732;20.078;2022-07-15T21:07:24;13.38;;;5.25;;
24301;SDS011;12421;49.732;20.078;2022-07-15T21:17:27;8.68;;;4.92;;
24301;SDS011;12421;49.732;20.078;2022-07-15T21:37:52;8.40;;;4.12;;
24301;SDS011;12421;49.732;20.078;2022-07-15T21:58:24;9.90;;;4.22;;
24301;SDS011;12421;49.732;20.078;2022-07-15T22:08:26;8.60;;;5.25;;
24301;SDS011;12421;49.732;20.078;2022-07-15T22:18:35;8.00;;;4.15;;
24301;SDS011;12421;49.732;20.078;2022-07-15T22:28:37;7.78;;;4.45;;
24301;SDS011;12421;49.732;20.078;2022-07-15T22:38:39;10.05;;;5.25;;
24301;SDS011;12421;49.732;20.078;2022-07-15T22:48:41;11.35;;;5.20;;
24301;SDS011;12421;49.732;20.078;2022-07-15T22:58:43;9.88;;;4.17;;
24301;SDS011;12421;49.732;20.078;2022-07-15T23:08:45;10.15;;;4.08;;
24301;SDS011;12421;49.732;20.078;2022-07-15T23:18:48;9.60;;;3.90;;
24301;SDS011;12421;49.732;20.078;2022-07-15T23:28:51;10.25;;;4.08;;
24301;SDS011;12421;49.732;20.078;2022-07-15T23:38:55;6.67;;;3.62;;
24301;SDS011;12421;49.732;20.078;2022-07-15T23:48:58;7.10;;;3.60;;
24301;SDS011;12421;49.732;20.078;2022-07-15T23:59:01;6.30;;;3.05;;
